sensor_id;sensor_type;location;lat;lon;timestamp;P1;durP1;ratioP1;P2;durP2;ratioP2
7398;SDS011;3740;50.700;7.184;2023-02-19T00:01:25;0.63;;;0.40;;
7398;SDS011;3740;50.700;7.184;2023-02-19T00:03:56;0.57;;;0.40;;
7398;SDS011;3740;50.700;7.184;2023-02-19T00:06:26;0.10;;;0.10;;
7398;SDS011;3740;50.700;7.184;2023-02-19T00:08:54;0.33;;;0.20;;
7398;SDS011;3740;50.700;7.184;2023-02-19T00:11:21;0.20;;;0.20;;
7398;SDS011;3740;50.700;7.184;2023-02-19T00:13:49;0.93;;;0.43;;
7398;SDS011;3740;50.700;7.184;2023-02-19T00:16:19;0.80;;;0.30;;
7398;SDS011;3740;50.700;7.184;2023-02-19T00:18:46;1.33;;;0.60;;
7398;SDS011;3740;50.700;7.184;2023-02-19T00:21:12;0.50;;;0.50;;
7398;SDS011;3740;50.700;7.184;2023-02-19T00:23:38;0.30;;;0.30;;
7398;SDS011;3740;50.700;7.184;2023-02-19T00:26:04;0.40;;;0.33;;
7398;SDS011;3740;50.700;7.184;2023-02-19T00:28:35;0.53;;;0.30;;
7398;SDS011;3740;50.700;7.184;2023-02-19T00:31:34;0.73;;;0.40;;
7398;SDS011;3740;50.700;7.184;2023-02-19T00:33:56;0.77;;;0.40;;
7398;SDS011;3740;50.700;7.184;2023-02-19T00:36:24;0.20;;;0.20;;
7398;SDS011;3740;50.700;7.184;2023-02-19T00:38:50;0.67;;;0.30;;
7398;SDS011;3740;50.700;7.184;2023-02-19T00:41:17;0.40;;;0.30;;
7398;SDS011;3740;50.700;7.184;2023-02-19T00:43:53;0.63;;;0.37;;
7398;SDS011;3740;50.700;7.184;2023-02-19T00:46:24;0.37;;;0.30;;
7398;SDS011;3740;50.700;7.184;2023-02-19T00:48:50;0.43;;;0.30;;
7398;SDS011;3740;50.700;7.184;2023-02-19T00:51:16;1.63;;;0.57;;
7398;SDS011;3740;50.700;7.184;2023-02-19T00:53:43;0.53;;;0.53;;
7398;SDS011;3740;50.700;7.184;2023-02-19T00:56:09;0.50;;;0.50;;
7398;SDS011;3740;50.700;7.184;2023-02-19T00:58:35;0.77;;;0.40;;
7398;SDS011;3740;50.700;7.184;2023-02-19T01:01:02;0.47;;;0.47;;
7398;SDS011;3740;50.700;7.184;2023-02-19T01:03:30;0.60;;;0.60;;
7398;SDS011;3740;50.700;7.184;2023-02-19T01:05:56;0.90;;;0.90;;
7398;SDS011;3740;50.700;7.184;2023-02-19T01:08:22;0.70;;;0.70;;
7398;SDS011;3740;50.700;7.184;2023-02-19T01:10:47;0.90;;;0.90;;
7398;SDS011;3740;50.700;7.184;2023-02-19T01:13:14;1.00;;;1.00;;
7398;SDS011;3740;50.700;7.184;2023-02-19T01:15:40;1.50;;;1.40;;
7398;SDS011;3740;50.700;7.184;2023-02-19T01:18:06;1.30;;;1.20;;
7398;SDS011;3740;50.700;7.184;2023-02-19T01:20:32;1.53;;;1.43;;
7398;SDS011;3740;50.700;7.184;2023-02-19T01:22:57;2.13;;;2.03;;
7398;SDS011;3740;50.700;7.184;2023-02-19T01:25:23;2.50;;;2.30;;
7398;SDS011;3740;50.700;7.184;2023-02-19T01:27:48;2.87;;;2.67;;
7398;SDS011;3740;50.700;7.184;2023-02-19T01:30:14;3.10;;;2.90;;
7398;SDS011;3740;50.700;7.184;2023-02-19T01:32:40;3.77;;;3.30;;
7398;SDS011;3740;50.700;7.184;2023-02-19T01:35:05;3.80;;;3.50;;
7398;SDS011;3740;50.700;7.184;2023-02-19T01:37:31;3.30;;;3.10;;
7398;SDS011;3740;50.700;7.184;2023-02-19T01:39:56;3.50;;;3.20;;
7398;SDS011;3740;50.700;7.184;2023-02-19T01:42:22;3.30;;;3.00;;
7398;SDS011;3740;50.700;7.184;2023-02-19T01:47:13;2.80;;;2.60;;
7398;SDS011;3740;50.700;7.184;2023-02-19T01:49:59;2.10;;;2.00;;
7398;SDS011;3740;50.700;7.184;2023-02-19T01:52:29;1.97;;;1.73;;
7398;SDS011;3740;50.700;7.184;2023-02-19T01:54:58;2.30;;;1.40;;
7398;SDS011;3740;50.700;7.184;2023-02-19T01:57:27;1.27;;;1.17;;
7398;SDS011;3740;50.700;7.184;2023-02-19T01:59:58;1.30;;;1.20;;
7398;SDS011;3740;50.700;7.184;2023-02-19T02:02:29;0.83;;;0.77;;
7398;SDS011;3740;50.700;7.184;2023-02-19T02:04:55;0.70;;;0.70;;
7398;SDS011;3740;50.700;7.184;2023-02-19T02:07:22;0.60;;;0.60;;
7398;SDS011;3740;50.700;7.184;2023-02-19T02:10:06;0.60;;;0.57;;
7398;SDS011;3740;50.700;7.184;2023-02-19T02:12:44;1.80;;;0.70;;
7398;SDS011;3740;50.700;7.184;2023-02-19T02:15:10;0.80;;;0.80;;
7398;SDS011;3740;50.700;7.184;2023-02-19T02:23:45;0.83;;;0.60;;
7398;SDS011;3740;50.700;7.184;2023-02-19T02:26:21;0.67;;;0.67;;
7398;SDS011;3740;50.700;7.184;2023-02-19T02:31:32;1.63;;;0.77;;
7398;SDS011;3740;50.700;7.184;2023-02-19T02:34:17;0.67;;;0.67;;
7398;SDS011;3740;50.700;7.184;2023-02-19T02:36:49;0.60;;;0.60;;
7398;SDS011;3740;50.700;7.184;2023-02-19T02:39:18;0.67;;;0.67;;
7398;SDS011;3740;50.700;7.184;2023-02-19T02:41:50;0.70;;;0.70;;
7398;SDS011;3740;50.700;7.184;2023-02-19T02:44:38;1.30;;;0.80;;
7398;SDS011;3740;50.700;7.184;2023-02-19T02:47:05;0.90;;;0.90;;
7398;SDS011;3740;50.700;7.184;2023-02-19T02:49:52;0.63;;;0.63;;
7398;SDS011;3740;50.700;7.184;2023-02-19T02:52:29;0.77;;;0.77;;
7398;SDS011;3740;50.700;7.184;2023-02-19T02:55:14;1.33;;;1.10;;
7398;SDS011;3740;50.700;7.184;2023-02-19T02:57:40;2.20;;;1.50;;
7398;SDS011;3740;50.700;7.184;2023-02-19T03:00:06;1.53;;;1.33;;
7398;SDS011;3740;50.700;7.184;2023-02-19T03:02:32;1.40;;;1.40;;
7398;SDS011;3740;50.700;7.184;2023-02-19T03:05:02;1.67;;;1.57;;
7398;SDS011;3740;50.700;7.184;2023-02-19T03:10:35;1.97;;;1.87;;
7398;SDS011;3740;50.700;7.184;2023-02-19T03:13:05;2.17;;;1.93;;
7398;SDS011;3740;50.700;7.184;2023-02-19T03:15:56;2.23;;;2.13;;
7398;SDS011;3740;50.700;7.184;2023-02-19T03:18:45;2.27;;;2.13;;
7398;SDS011;3740;50.700;7.184;2023-02-19T03:21:33;2.80;;;2.60;;
7398;SDS011;3740;50.700;7.184;2023-02-19T03:24:02;3.20;;;2.90;;
7398;SDS011;3740;50.700;7.184;2023-02-19T03:26:48;3.73;;;3.43;;
7398;SDS011;3740;50.700;7.184;2023-02-19T03:29:19;4.23;;;3.83;;
7398;SDS011;3740;50.700;7.184;2023-02-19T03:31:48;4.30;;;3.90;;
7398;SDS011;3740;50.700;7.184;2023-02-19T03:34:27;4.50;;;4.10;;
7398;SDS011;3740;50.700;7.184;2023-02-19T03:37:00;4.90;;;4.40;;
7398;SDS011;3740;50.700;7.184;2023-02-19T03:39:32;7.03;;;5.67;;
7398;SDS011;3740;50.700;7.184;2023-02-19T03:42:12;6.00;;;5.40;;
7398;SDS011;3740;50.700;7.184;2023-02-19T03:44:59;7.07;;;5.40;;
7398;SDS011;3740;50.700;7.184;2023-02-19T03:47:43;6.00;;;5.40;;
7398;SDS011;3740;50.700;7.184;2023-02-19T03:50:18;7.70;;;6.27;;
7398;SDS011;3740;50.700;7.184;2023-02-19T03:55:23;6.70;;;6.00;;
7398;SDS011;3740;50.700;7.184;2023-02-19T03:58:40;7.43;;;6.17;;
7398;SDS011;3740;50.700;7.184;2023-02-19T04:00:45;7.90;;;6.60;;
7398;SDS011;3740;50.700;7.184;2023-02-19T04:03:53;8.23;;;6.77;;
7398;SDS011;3740;50.700;7.184;2023-02-19T04:06:26;6.80;;;6.23;;
7398;SDS011;3740;50.700;7.184;2023-02-19T04:08:55;7.83;;;7.03;;
7398;SDS011;3740;50.700;7.184;2023-02-19T04:11:23;8.30;;;7.10;;
7398;SDS011;3740;50.700;7.184;2023-02-19T04:13:55;7.10;;;6.40;;
7398;SDS011;3740;50.700;7.184;2023-02-19T04:16:28;7.87;;;7.10;;
7398;SDS011;3740;50.700;7.184;2023-02-19T04:18:56;7.87;;;6.40;;
7398;SDS011;3740;50.700;7.184;2023-02-19T04:21:32;10.20;;;6.97;;
7398;SDS011;3740;50.700;7.184;2023-02-19T04:24:01;8.00;;;6.23;;
7398;SDS011;3740;50.700;7.184;2023-02-19T04:26:31;8.07;;;6.40;;
7398;SDS011;3740;50.700;7.184;2023-02-19T04:28:58;8.13;;;6.43;;
7398;SDS011;3740;50.700;7.184;2023-02-19T04:31:24;6.90;;;6.20;;
7398;SDS011;3740;50.700;7.184;2023-02-19T04:33:51;9.53;;;6.57;;
7398;SDS011;3740;50.700;7.184;2023-02-19T04:36:17;7.50;;;6.57;;
7398;SDS011;3740;50.700;7.184;2023-02-19T04:38:42;8.40;;;7.13;;
7398;SDS011;3740;50.700;7.184;2023-02-19T04:41:08;10.03;;;7.13;;
7398;SDS011;3740;50.700;7.184;2023-02-19T04:43:34;7.73;;;6.87;;
7398;SDS011;3740;50.700;7.184;2023-02-19T04:46:00;8.00;;;6.50;;
7398;SDS011;3740;50.700;7.184;2023-02-19T04:48:26;7.53;;;6.83;;
7398;SDS011;3740;50.700;7.184;2023-02-19T04:50:52;10.03;;;6.80;;
7398;SDS011;3740;50.700;7.184;2023-02-19T04:53:17;8.80;;;6.37;;
7398;SDS011;3740;50.700;7.184;2023-02-19T04:55:43;7.60;;;6.70;;
7398;SDS011;3740;50.700;7.184;2023-02-19T04:58:09;7.57;;;6.77;;
7398;SDS011;3740;50.700;7.184;2023-02-19T05:00:34;7.70;;;6.80;;
7398;SDS011;3740;50.700;7.184;2023-02-19T05:03:00;11.67;;;7.37;;
7398;SDS011;3740;50.700;7.184;2023-02-19T05:05:26;8.57;;;7.00;;
7398;SDS011;3740;50.700;7.184;2023-02-19T05:07:51;9.23;;;6.93;;
7398;SDS011;3740;50.700;7.184;2023-02-19T05:10:17;9.53;;;6.87;;
7398;SDS011;3740;50.700;7.184;2023-02-19T05:12:43;9.43;;;6.67;;
7398;SDS011;3740;50.700;7.184;2023-02-19T05:15:08;9.30;;;7.27;;
7398;SDS011;3740;50.700;7.184;2023-02-19T05:17:34;8.07;;;7.00;;
7398;SDS011;3740;50.700;7.184;2023-02-19T05:19:59;7.67;;;6.73;;
7398;SDS011;3740;50.700;7.184;2023-02-19T05:22:25;9.50;;;7.23;;
7398;SDS011;3740;50.700;7.184;2023-02-19T05:24:53;10.10;;;7.40;;
7398;SDS011;3740;50.700;7.184;2023-02-19T05:27:19;10.90;;;7.33;;
7398;SDS011;3740;50.700;7.184;2023-02-19T05:29:44;8.20;;;6.97;;
7398;SDS011;3740;50.700;7.184;2023-02-19T05:32:10;11.33;;;7.80;;
7398;SDS011;3740;50.700;7.184;2023-02-19T05:34:35;9.03;;;7.20;;
7398;SDS011;3740;50.700;7.184;2023-02-19T05:37:01;10.53;;;7.50;;
7398;SDS011;3740;50.700;7.184;2023-02-19T05:39:26;15.47;;;8.60;;
7398;SDS011;3740;50.700;7.184;2023-02-19T05:41:52;10.10;;;8.00;;
7398;SDS011;3740;50.700;7.184;2023-02-19T05:44:17;11.30;;;7.93;;
7398;SDS011;3740;50.700;7.184;2023-02-19T05:46:43;10.40;;;7.90;;
7398;SDS011;3740;50.700;7.184;2023-02-19T05:49:08;12.60;;;8.63;;
7398;SDS011;3740;50.700;7.184;2023-02-19T05:51:34;12.40;;;8.53;;
7398;SDS011;3740;50.700;7.184;2023-02-19T05:54:00;9.43;;;7.93;;
7398;SDS011;3740;50.700;7.184;2023-02-19T05:58:55;11.67;;;8.70;;
7398;SDS011;3740;50.700;7.184;2023-02-19T06:01:22;12.07;;;9.40;;
7398;SDS011;3740;50.700;7.184;2023-02-19T06:03:49;13.87;;;9.27;;
7398;SDS011;3740;50.700;7.184;2023-02-19T06:06:15;13.43;;;9.83;;
7398;SDS011;3740;50.700;7.184;2023-02-19T06:08:42;14.07;;;10.00;;
7398;SDS011;3740;50.700;7.184;2023-02-19T06:11:07;13.27;;;8.97;;
7398;SDS011;3740;50.700;7.184;2023-02-19T06:13:33;12.47;;;10.00;;
7398;SDS011;3740;50.700;7.184;2023-02-19T06:16:02;12.90;;;9.83;;
7398;SDS011;3740;50.700;7.184;2023-02-19T06:18:28;12.07;;;10.07;;
7398;SDS011;3740;50.700;7.184;2023-02-19T06:20:59;13.90;;;10.37;;
7398;SDS011;3740;50.700;7.184;2023-02-19T06:23:28;12.23;;;10.67;;
7398;SDS011;3740;50.700;7.184;2023-02-19T06:25:54;12.47;;;10.27;;
7398;SDS011;3740;50.700;7.184;2023-02-19T06:28:28;13.80;;;10.77;;
7398;SDS011;3740;50.700;7.184;2023-02-19T06:30:53;13.23;;;10.37;;
7398;SDS011;3740;50.700;7.184;2023-02-19T06:33:19;12.03;;;10.27;;
7398;SDS011;3740;50.700;7.184;2023-02-19T06:35:44;13.47;;;10.77;;
7398;SDS011;3740;50.700;7.184;2023-02-19T06:38:10;12.20;;;10.90;;
7398;SDS011;3740;50.700;7.184;2023-02-19T06:40:35;13.47;;;10.33;;
7398;SDS011;3740;50.700;7.184;2023-02-19T06:43:01;13.60;;;10.20;;
7398;SDS011;3740;50.700;7.184;2023-02-19T06:45:27;13.93;;;10.03;;
7398;SDS011;3740;50.700;7.184;2023-02-19T06:47:53;11.90;;;10.40;;
7398;SDS011;3740;50.700;7.184;2023-02-19T06:50:19;11.20;;;10.07;;
7398;SDS011;3740;50.700;7.184;2023-02-19T06:52:44;12.50;;;10.23;;
7398;SDS011;3740;50.700;7.184;2023-02-19T06:55:10;14.87;;;9.70;;
7398;SDS011;3740;50.700;7.184;2023-02-19T06:57:35;14.27;;;10.03;;
7398;SDS011;3740;50.700;7.184;2023-02-19T07:00:01;12.93;;;9.63;;
7398;SDS011;3740;50.700;7.184;2023-02-19T07:02:28;14.27;;;9.47;;
7398;SDS011;3740;50.700;7.184;2023-02-19T07:04:54;13.57;;;9.80;;
7398;SDS011;3740;50.700;7.184;2023-02-19T07:07:19;11.53;;;9.70;;
7398;SDS011;3740;50.700;7.184;2023-02-19T07:09:45;12.47;;;10.10;;
7398;SDS011;3740;50.700;7.184;2023-02-19T07:12:10;14.60;;;10.83;;
7398;SDS011;3740;50.700;7.184;2023-02-19T07:14:36;11.67;;;9.13;;
7398;SDS011;3740;50.700;7.184;2023-02-19T07:17:02;14.40;;;10.50;;
7398;SDS011;3740;50.700;7.184;2023-02-19T07:19:27;11.83;;;9.73;;
7398;SDS011;3740;50.700;7.184;2023-02-19T07:21:53;13.03;;;10.40;;
7398;SDS011;3740;50.700;7.184;2023-02-19T07:24:18;12.93;;;10.50;;
7398;SDS011;3740;50.700;7.184;2023-02-19T07:26:45;12.67;;;9.60;;
7398;SDS011;3740;50.700;7.184;2023-02-19T07:29:11;13.03;;;9.20;;
7398;SDS011;3740;50.700;7.184;2023-02-19T07:31:36;13.77;;;9.57;;
7398;SDS011;3740;50.700;7.184;2023-02-19T07:34:02;15.00;;;10.30;;
7398;SDS011;3740;50.700;7.184;2023-02-19T07:36:27;14.77;;;10.40;;
7398;SDS011;3740;50.700;7.184;2023-02-19T07:38:53;12.93;;;9.73;;
7398;SDS011;3740;50.700;7.184;2023-02-19T07:41:23;14.13;;;10.40;;
7398;SDS011;3740;50.700;7.184;2023-02-19T07:43:50;14.67;;;10.80;;
7398;SDS011;3740;50.700;7.184;2023-02-19T07:46:16;16.33;;;11.33;;
7398;SDS011;3740;50.700;7.184;2023-02-19T07:48:41;16.63;;;11.57;;
7398;SDS011;3740;50.700;7.184;2023-02-19T07:51:10;16.40;;;11.43;;
7398;SDS011;3740;50.700;7.184;2023-02-19T07:53:37;16.57;;;12.53;;
7398;SDS011;3740;50.700;7.184;2023-02-19T07:56:04;16.17;;;12.07;;
7398;SDS011;3740;50.700;7.184;2023-02-19T07:58:31;17.83;;;12.23;;
7398;SDS011;3740;50.700;7.184;2023-02-19T08:00:57;15.00;;;12.27;;
7398;SDS011;3740;50.700;7.184;2023-02-19T08:03:40;16.43;;;12.30;;
7398;SDS011;3740;50.700;7.184;2023-02-19T08:06:06;20.27;;;12.80;;
7398;SDS011;3740;50.700;7.184;2023-02-19T08:08:35;16.10;;;12.13;;
7398;SDS011;3740;50.700;7.184;2023-02-19T08:11:01;18.47;;;13.13;;
7398;SDS011;3740;50.700;7.184;2023-02-19T08:14:03;18.67;;;11.77;;
7398;SDS011;3740;50.700;7.184;2023-02-19T08:16:28;15.33;;;11.33;;
7398;SDS011;3740;50.700;7.184;2023-02-19T08:18:54;14.73;;;10.37;;
7398;SDS011;3740;50.700;7.184;2023-02-19T08:21:19;11.70;;;9.83;;
7398;SDS011;3740;50.700;7.184;2023-02-19T08:23:45;15.57;;;10.37;;
7398;SDS011;3740;50.700;7.184;2023-02-19T08:26:11;13.60;;;9.30;;
7398;SDS011;3740;50.700;7.184;2023-02-19T08:28:36;11.57;;;10.27;;
7398;SDS011;3740;50.700;7.184;2023-02-19T08:31:03;11.73;;;9.30;;
7398;SDS011;3740;50.700;7.184;2023-02-19T08:33:30;13.63;;;9.87;;
7398;SDS011;3740;50.700;7.184;2023-02-19T08:35:55;14.10;;;9.33;;
7398;SDS011;3740;50.700;7.184;2023-02-19T08:38:25;11.37;;;9.50;;
7398;SDS011;3740;50.700;7.184;2023-02-19T08:40:50;14.30;;;9.97;;
7398;SDS011;3740;50.700;7.184;2023-02-19T08:43:16;13.43;;;10.00;;
7398;SDS011;3740;50.700;7.184;2023-02-19T08:45:43;16.63;;;9.90;;
7398;SDS011;3740;50.700;7.184;2023-02-19T08:48:11;15.67;;;10.33;;
7398;SDS011;3740;50.700;7.184;2023-02-19T08:50:37;13.30;;;10.50;;
7398;SDS011;3740;50.700;7.184;2023-02-19T08:53:03;12.77;;;9.97;;
7398;SDS011;3740;50.700;7.184;2023-02-19T08:55:30;14.23;;;10.83;;
7398;SDS011;3740;50.700;7.184;2023-02-19T08:57:56;14.73;;;10.13;;
7398;SDS011;3740;50.700;7.184;2023-02-19T09:00:22;15.83;;;10.70;;
7398;SDS011;3740;50.700;7.184;2023-02-19T09:02:48;14.43;;;11.53;;
7398;SDS011;3740;50.700;7.184;2023-02-19T09:05:13;15.33;;;10.43;;
7398;SDS011;3740;50.700;7.184;2023-02-19T09:07:39;13.73;;;10.57;;
7398;SDS011;3740;50.700;7.184;2023-02-19T09:10:06;14.30;;;10.47;;
7398;SDS011;3740;50.700;7.184;2023-02-19T09:12:32;14.13;;;11.00;;
7398;SDS011;3740;50.700;7.184;2023-02-19T09:14:58;16.30;;;10.83;;
7398;SDS011;3740;50.700;7.184;2023-02-19T09:17:25;16.00;;;10.93;;
7398;SDS011;3740;50.700;7.184;2023-02-19T09:19:50;17.00;;;10.47;;
7398;SDS011;3740;50.700;7.184;2023-02-19T09:22:16;14.60;;;10.60;;
7398;SDS011;3740;50.700;7.184;2023-02-19T09:24:42;17.13;;;10.50;;
7398;SDS011;3740;50.700;7.184;2023-02-19T09:27:08;14.33;;;9.80;;
7398;SDS011;3740;50.700;7.184;2023-02-19T09:29:38;17.37;;;10.57;;
7398;SDS011;3740;50.700;7.184;2023-02-19T09:32:04;13.37;;;9.87;;
7398;SDS011;3740;50.700;7.184;2023-02-19T09:34:29;14.63;;;9.60;;
7398;SDS011;3740;50.700;7.184;2023-02-19T09:36:55;15.93;;;9.73;;
7398;SDS011;3740;50.700;7.184;2023-02-19T09:39:21;13.80;;;9.73;;
7398;SDS011;3740;50.700;7.184;2023-02-19T09:41:48;12.50;;;10.07;;
7398;SDS011;3740;50.700;7.184;2023-02-19T09:44:29;16.60;;;10.30;;
7398;SDS011;3740;50.700;7.184;2023-02-19T09:46:58;11.43;;;9.13;;
7398;SDS011;3740;50.700;7.184;2023-02-19T09:49:29;13.57;;;9.03;;
7398;SDS011;3740;50.700;7.184;2023-02-19T09:54:27;12.50;;;8.70;;
7398;SDS011;3740;50.700;7.184;2023-02-19T09:56:56;13.27;;;9.23;;
7398;SDS011;3740;50.700;7.184;2023-02-19T09:59:25;12.57;;;9.50;;
7398;SDS011;3740;50.700;7.184;2023-02-19T10:02:02;13.27;;;8.73;;
7398;SDS011;3740;50.700;7.184;2023-02-19T10:04:37;12.80;;;8.53;;
7398;SDS011;3740;50.700;7.184;2023-02-19T10:07:17;11.37;;;9.30;;
7398;SDS011;3740;50.700;7.184;2023-02-19T10:09:56;14.60;;;9.97;;
7398;SDS011;3740;50.700;7.184;2023-02-19T10:12:29;11.33;;;9.20;;
7398;SDS011;3740;50.700;7.184;2023-02-19T10:15:40;12.57;;;9.37;;
7398;SDS011;3740;50.700;7.184;2023-02-19T10:17:53;14.07;;;10.82;;
7398;SDS011;3740;50.700;7.184;2023-02-19T10:20:19;12.80;;;10.37;;
7398;SDS011;3740;50.700;7.184;2023-02-19T10:22:59;13.90;;;10.57;;
7398;SDS011;3740;50.700;7.184;2023-02-19T10:25:29;15.53;;;10.60;;
7398;SDS011;3740;50.700;7.184;2023-02-19T10:27:57;14.77;;;12.00;;
7398;SDS011;3740;50.700;7.184;2023-02-19T10:30:24;14.53;;;11.67;;
7398;SDS011;3740;50.700;7.184;2023-02-19T10:32:59;13.87;;;10.53;;
7398;SDS011;3740;50.700;7.184;2023-02-19T10:35:37;14.40;;;11.10;;
7398;SDS011;3740;50.700;7.184;2023-02-19T10:38:14;14.63;;;10.67;;
7398;SDS011;3740;50.700;7.184;2023-02-19T10:40:42;12.80;;;11.10;;
7398;SDS011;3740;50.700;7.184;2023-02-19T10:43:12;12.10;;;9.20;;
7398;SDS011;3740;50.700;7.184;2023-02-19T10:45:46;11.63;;;9.37;;
7398;SDS011;3740;50.700;7.184;2023-02-19T10:48:23;10.73;;;9.03;;
7398;SDS011;3740;50.700;7.184;2023-02-19T10:50:52;10.17;;;8.03;;
7398;SDS011;3740;50.700;7.184;2023-02-19T10:53:22;12.67;;;9.03;;
7398;SDS011;3740;50.700;7.184;2023-02-19T10:56:09;12.40;;;8.37;;
7398;SDS011;3740;50.700;7.184;2023-02-19T10:58:41;11.23;;;8.90;;
7398;SDS011;3740;50.700;7.184;2023-02-19T11:01:15;11.70;;;7.83;;
7398;SDS011;3740;50.700;7.184;2023-02-19T11:03:47;12.37;;;7.80;;
7398;SDS011;3740;50.700;7.184;2023-02-19T11:06:14;9.47;;;8.03;;
7398;SDS011;3740;50.700;7.184;2023-02-19T11:11:26;8.60;;;7.60;;
7398;SDS011;3740;50.700;7.184;2023-02-19T11:14:01;9.30;;;7.50;;
7398;SDS011;3740;50.700;7.184;2023-02-19T11:16:37;12.13;;;7.17;;
7398;SDS011;3740;50.700;7.184;2023-02-19T11:21:52;10.17;;;6.33;;
7398;SDS011;3740;50.700;7.184;2023-02-19T11:24:23;9.30;;;7.13;;
7398;SDS011;3740;50.700;7.184;2023-02-19T11:26:59;10.60;;;7.20;;
7398;SDS011;3740;50.700;7.184;2023-02-19T11:29:27;9.60;;;6.90;;
7398;SDS011;3740;50.700;7.184;2023-02-19T11:32:02;9.20;;;6.47;;
7398;SDS011;3740;50.700;7.184;2023-02-19T11:35:03;8.17;;;5.97;;
7398;SDS011;3740;50.700;7.184;2023-02-19T11:37:45;7.77;;;5.73;;
7398;SDS011;3740;50.700;7.184;2023-02-19T11:43:38;7.63;;;5.80;;
7398;SDS011;3740;50.700;7.184;2023-02-19T11:46:06;8.27;;;5.60;;
7398;SDS011;3740;50.700;7.184;2023-02-19T11:48:41;7.03;;;5.20;;
7398;SDS011;3740;50.700;7.184;2023-02-19T11:56:57;5.83;;;5.23;;
7398;SDS011;3740;50.700;7.184;2023-02-19T11:59:55;7.57;;;5.00;;
7398;SDS011;3740;50.700;7.184;2023-02-19T12:02:38;8.03;;;4.90;;
7398;SDS011;3740;50.700;7.184;2023-02-19T12:05:31;5.90;;;4.73;;
7398;SDS011;3740;50.700;7.184;2023-02-19T12:19:58;5.80;;;5.10;;
7398;SDS011;3740;50.700;7.184;2023-02-19T12:35:05;6.23;;;4.63;;
7398;SDS011;3740;50.700;7.184;2023-02-19T12:38:01;6.70;;;5.20;;
7398;SDS011;3740;50.700;7.184;2023-02-19T12:40:43;5.90;;;4.97;;
7398;SDS011;3740;50.700;7.184;2023-02-19T12:43:21;5.60;;;5.00;;
7398;SDS011;3740;50.700;7.184;2023-02-19T12:48:24;7.10;;;4.90;;
7398;SDS011;3740;50.700;7.184;2023-02-19T12:50:56;7.23;;;5.70;;
7398;SDS011;3740;50.700;7.184;2023-02-19T12:53:32;6.40;;;5.70;;
7398;SDS011;3740;50.700;7.184;2023-02-19T12:56:07;6.43;;;5.40;;
7398;SDS011;3740;50.700;7.184;2023-02-19T12:58:41;7.13;;;5.97;;
7398;SDS011;3740;50.700;7.184;2023-02-19T13:01:13;7.63;;;6.10;;
7398;SDS011;3740;50.700;7.184;2023-02-19T13:03:47;6.70;;;6.00;;
7398;SDS011;3740;50.700;7.184;2023-02-19T13:06:39;7.03;;;6.13;;
7398;SDS011;3740;50.700;7.184;2023-02-19T13:11:39;6.70;;;6.10;;
7398;SDS011;3740;50.700;7.184;2023-02-19T13:14:16;6.30;;;5.57;;
7398;SDS011;3740;50.700;7.184;2023-02-19T13:16:51;6.77;;;5.30;;
7398;SDS011;3740;50.700;7.184;2023-02-19T13:19:21;6.20;;;5.10;;
7398;SDS011;3740;50.700;7.184;2023-02-19T13:21:49;5.73;;;4.90;;
7398;SDS011;3740;50.700;7.184;2023-02-19T13:24:40;5.87;;;5.00;;
7398;SDS011;3740;50.700;7.184;2023-02-19T13:32:20;5.80;;;4.97;;
7398;SDS011;3740;50.700;7.184;2023-02-19T13:35:18;5.57;;;4.90;;
7398;SDS011;3740;50.700;7.184;2023-02-19T13:37:44;5.73;;;5.10;;
7398;SDS011;3740;50.700;7.184;2023-02-19T13:40:26;5.20;;;4.70;;
7398;SDS011;3740;50.700;7.184;2023-02-19T13:43:00;4.60;;;4.20;;
7398;SDS011;3740;50.700;7.184;2023-02-19T13:45:34;5.60;;;4.67;;
7398;SDS011;3740;50.700;7.184;2023-02-19T13:50:47;5.27;;;4.53;;
7398;SDS011;3740;50.700;7.184;2023-02-19T14:04:23;5.17;;;4.67;;
7398;SDS011;3740;50.700;7.184;2023-02-19T14:12:03;6.07;;;5.00;;
7398;SDS011;3740;50.700;7.184;2023-02-19T14:25:17;8.27;;;7.37;;
7398;SDS011;3740;50.700;7.184;2023-02-19T14:30:51;8.67;;;7.50;;
7398;SDS011;3740;50.700;7.184;2023-02-19T14:33:23;7.40;;;6.50;;
7398;SDS011;3740;50.700;7.184;2023-02-19T14:36:14;9.47;;;7.60;;
7398;SDS011;3740;50.700;7.184;2023-02-19T14:38:45;7.63;;;6.73;;
7398;SDS011;3740;50.700;7.184;2023-02-19T14:41:18;7.20;;;6.60;;
7398;SDS011;3740;50.700;7.184;2023-02-19T14:43:47;8.07;;;6.47;;
7398;SDS011;3740;50.700;7.184;2023-02-19T14:48:59;7.70;;;6.90;;
7398;SDS011;3740;50.700;7.184;2023-02-19T14:51:51;8.83;;;7.67;;
7398;SDS011;3740;50.700;7.184;2023-02-19T14:54:34;7.67;;;6.80;;
7398;SDS011;3740;50.700;7.184;2023-02-19T14:57:14;10.20;;;7.70;;
7398;SDS011;3740;50.700;7.184;2023-02-19T14:59:57;7.43;;;6.00;;
7398;SDS011;3740;50.700;7.184;2023-02-19T15:02:24;6.53;;;5.60;;
7398;SDS011;3740;50.700;7.184;2023-02-19T15:04:54;6.13;;;4.77;;
7398;SDS011;3740;50.700;7.184;2023-02-19T15:07:21;5.30;;;4.60;;
7398;SDS011;3740;50.700;7.184;2023-02-19T15:09:55;6.53;;;4.60;;
7398;SDS011;3740;50.700;7.184;2023-02-19T15:12:29;6.73;;;5.17;;
7398;SDS011;3740;50.700;7.184;2023-02-19T15:14:59;5.27;;;4.60;;
7398;SDS011;3740;50.700;7.184;2023-02-19T15:17:30;5.53;;;5.00;;
7398;SDS011;3740;50.700;7.184;2023-02-19T15:19:59;7.63;;;4.70;;
7398;SDS011;3740;50.700;7.184;2023-02-19T15:22:29;6.07;;;5.27;;
7398;SDS011;3740;50.700;7.184;2023-02-19T15:25:01;5.97;;;5.27;;
7398;SDS011;3740;50.700;7.184;2023-02-19T15:27:28;6.50;;;5.90;;
7398;SDS011;3740;50.700;7.184;2023-02-19T15:29:54;8.47;;;5.87;;
7398;SDS011;3740;50.700;7.184;2023-02-19T15:32:21;6.03;;;5.43;;
7398;SDS011;3740;50.700;7.184;2023-02-19T15:34:57;8.37;;;5.67;;
7398;SDS011;3740;50.700;7.184;2023-02-19T15:37:24;8.73;;;6.50;;
7398;SDS011;3740;50.700;7.184;2023-02-19T15:39:57;7.60;;;6.20;;
7398;SDS011;3740;50.700;7.184;2023-02-19T15:42:26;8.77;;;5.93;;
7398;SDS011;3740;50.700;7.184;2023-02-19T15:45:05;7.00;;;6.30;;
7398;SDS011;3740;50.700;7.184;2023-02-19T15:47:52;8.27;;;5.60;;
7398;SDS011;3740;50.700;7.184;2023-02-19T15:50:24;7.73;;;6.63;;
7398;SDS011;3740;50.700;7.184;2023-02-19T15:52:55;8.63;;;6.17;;
7398;SDS011;3740;50.700;7.184;2023-02-19T15:58:14;7.37;;;6.20;;
7398;SDS011;3740;50.700;7.184;2023-02-19T16:03:32;6.93;;;6.13;;
7398;SDS011;3740;50.700;7.184;2023-02-19T16:06:03;8.27;;;6.40;;
7398;SDS011;3740;50.700;7.184;2023-02-19T16:08:36;7.43;;;6.20;;
7398;SDS011;3740;50.700;7.184;2023-02-19T16:11:04;7.80;;;6.70;;
7398;SDS011;3740;50.700;7.184;2023-02-19T16:13:49;8.17;;;6.90;;
7398;SDS011;3740;50.700;7.184;2023-02-19T16:18:54;10.27;;;6.83;;
7398;SDS011;3740;50.700;7.184;2023-02-19T16:21:21;9.10;;;6.83;;
7398;SDS011;3740;50.700;7.184;2023-02-19T16:23:49;8.47;;;7.20;;
7398;SDS011;3740;50.700;7.184;2023-02-19T16:26:18;9.10;;;6.70;;
7398;SDS011;3740;50.700;7.184;2023-02-19T16:28:48;8.47;;;6.60;;
7398;SDS011;3740;50.700;7.184;2023-02-19T16:31:16;7.27;;;6.20;;
7398;SDS011;3740;50.700;7.184;2023-02-19T16:33:46;9.70;;;6.90;;
7398;SDS011;3740;50.700;7.184;2023-02-19T16:46:49;9.77;;;6.77;;
7398;SDS011;3740;50.700;7.184;2023-02-19T16:49:16;10.10;;;6.57;;
7398;SDS011;3740;50.700;7.184;2023-02-19T16:51:42;9.63;;;7.27;;
7398;SDS011;3740;50.700;7.184;2023-02-19T16:54:10;8.83;;;7.40;;
7398;SDS011;3740;50.700;7.184;2023-02-19T16:56:36;10.63;;;7.50;;
7398;SDS011;3740;50.700;7.184;2023-02-19T16:59:02;8.33;;;7.47;;
7398;SDS011;3740;50.700;7.184;2023-02-19T17:01:27;8.33;;;6.93;;
7398;SDS011;3740;50.700;7.184;2023-02-19T17:04:01;8.90;;;7.13;;
7398;SDS011;3740;50.700;7.184;2023-02-19T17:06:30;7.47;;;6.67;;
7398;SDS011;3740;50.700;7.184;2023-02-19T17:09:01;10.37;;;7.33;;
7398;SDS011;3740;50.700;7.184;2023-02-19T17:11:27;9.13;;;7.00;;
7398;SDS011;3740;50.700;7.184;2023-02-19T17:13:53;9.67;;;7.10;;
7398;SDS011;3740;50.700;7.184;2023-02-19T17:16:25;8.17;;;7.27;;
7398;SDS011;3740;50.700;7.184;2023-02-19T17:19:14;11.53;;;8.33;;
7398;SDS011;3740;50.700;7.184;2023-02-19T17:21:42;8.90;;;7.90;;
7398;SDS011;3740;50.700;7.184;2023-02-19T17:24:09;9.73;;;8.13;;
7398;SDS011;3740;50.700;7.184;2023-02-19T17:26:35;9.10;;;8.03;;
7398;SDS011;3740;50.700;7.184;2023-02-19T17:29:02;10.20;;;8.70;;
7398;SDS011;3740;50.700;7.184;2023-02-19T17:31:29;9.37;;;8.33;;
7398;SDS011;3740;50.700;7.184;2023-02-19T17:33:55;9.80;;;8.80;;